createdAt,value
2023-03-04T00:02:14.734Z,60.70
2023-03-04T00:04:41.730Z,62.17
2023-03-04T00:07:08.779Z,59.35
2023-03-04T00:09:35.784Z,58.85
2023-03-04T00:12:02.774Z,59.75
2023-03-04T00:14:30.568Z,58.22
2023-03-04T00:16:57.803Z,57.80
2023-03-04T00:19:24.880Z,58.88
2023-03-04T00:21:51.900Z,60.00
2023-03-04T00:24:18.972Z,61.50
2023-03-04T00:26:46.452Z,59.67
2023-03-04T00:29:13.530Z,59.00
2023-03-04T00:31:40.578Z,62.72
2023-03-04T00:34:07.700Z,61.33
2023-03-04T00:36:34.759Z,58.90
2023-03-04T00:39:01.804Z,61.45
2023-03-04T00:41:28.838Z,60.78
2023-03-04T00:43:55.949Z,58.55
2023-03-04T00:46:23.000Z,60.00
2023-03-04T00:48:50.040Z,62.85
2023-03-04T00:51:17.045Z,60.08
2023-03-04T00:53:44.051Z,61.00
2023-03-04T00:56:11.061Z,60.13
2023-03-04T00:58:39.400Z,58.97
2023-03-04T01:01:06.988Z,60.22
2023-03-04T01:03:34.524Z,59.20
2023-03-04T01:06:01.951Z,59.90
2023-03-04T01:08:29.405Z,59.00
2023-03-04T01:10:56.463Z,63.08
2023-03-04T01:13:23.480Z,59.22
2023-03-04T01:15:50.532Z,57.72
2023-03-04T01:18:17.584Z,59.53
2023-03-04T01:20:44.619Z,62.40
2023-03-04T01:23:11.681Z,56.30
2023-03-04T01:25:38.713Z,61.20
2023-03-04T01:28:05.759Z,61.00
2023-03-04T01:30:32.824Z,63.88
2023-03-04T01:32:59.878Z,59.30
2023-03-04T01:35:27.016Z,60.28
2023-03-04T01:37:54.112Z,58.72
2023-03-04T01:40:21.232Z,64.60
2023-03-04T01:42:48.379Z,61.50
2023-03-04T01:45:17.083Z,60.25
2023-03-04T01:47:48.319Z,58.67
2023-03-04T01:50:20.830Z,59.20
2023-03-04T01:52:47.931Z,61.05
2023-03-04T01:55:19.549Z,59.97
2023-03-04T01:57:47.652Z,56.17
2023-03-04T02:00:26.753Z,57.72
2023-03-04T02:02:55.501Z,58.03
2023-03-04T02:05:22.906Z,60.50
2023-03-04T02:07:50.626Z,59.58
2023-03-04T02:10:17.976Z,58.38
2023-03-04T02:12:45.413Z,57.38
2023-03-04T02:15:12.946Z,60.88
2023-03-04T02:17:40.094Z,59.78
2023-03-04T02:20:22.250Z,61.50
2023-03-04T02:22:58.647Z,57.65
2023-03-04T02:25:31.073Z,59.65
2023-03-04T02:27:58.088Z,58.88
2023-03-04T02:30:25.577Z,59.13
2023-03-04T02:32:53.236Z,60.08
2023-03-04T02:35:20.795Z,60.25
2023-03-04T02:37:47.879Z,61.03
2023-03-04T02:40:22.214Z,59.92
2023-03-04T02:42:49.383Z,60.00
2023-03-04T02:45:31.367Z,57.50
2023-03-04T02:47:58.415Z,61.60
2023-03-04T02:50:25.598Z,61.33
2023-03-04T02:52:52.610Z,61.40
2023-03-04T02:55:19.597Z,58.28
2023-03-04T02:57:46.604Z,60.17
2023-03-04T03:00:13.922Z,61.38
2023-03-04T03:02:40.953Z,60.42
2023-03-04T03:05:08.174Z,58.08
2023-03-04T03:07:35.206Z,59.40
2023-03-04T03:10:02.514Z,58.53
2023-03-04T03:12:29.502Z,58.17
2023-03-04T03:14:56.677Z,58.35
2023-03-04T03:17:23.681Z,59.50
2023-03-04T03:19:50.696Z,60.55
2023-03-04T03:22:17.840Z,59.85
2023-03-04T03:24:44.936Z,60.08
2023-03-04T03:27:11.940Z,60.80
2023-03-04T03:29:38.963Z,62.65
2023-03-04T03:32:06.317Z,60.67
2023-03-04T03:34:33.416Z,62.65
2023-03-04T03:37:00.419Z,61.22
2023-03-04T03:39:27.503Z,62.92
2023-03-04T03:41:54.519Z,63.88
2023-03-04T03:44:21.590Z,64.28
2023-03-04T03:46:48.639Z,63.63
2023-03-04T03:49:17.138Z,64.13
2023-03-04T03:51:44.528Z,63.20
2023-03-04T03:54:11.544Z,62.53
2023-03-04T03:56:38.651Z,65.53
2023-03-04T03:59:05.680Z,65.47
2023-03-04T04:01:33.535Z,65.82
2023-03-04T04:04:00.830Z,62.55
2023-03-04T04:06:28.168Z,62.95
2023-03-04T04:08:55.211Z,64.70
2023-03-04T04:11:22.281Z,62.28
2023-03-04T04:13:49.313Z,61.22
2023-03-04T04:16:16.402Z,62.97
2023-03-04T04:18:43.493Z,63.85
2023-03-04T04:21:10.506Z,62.20
2023-03-04T04:23:37.499Z,61.20
2023-03-04T04:26:04.556Z,61.70
2023-03-04T04:28:31.593Z,59.40
2023-03-04T04:30:58.630Z,61.45
2023-03-04T04:33:25.701Z,62.22
2023-03-04T04:35:52.757Z,59.85
2023-03-04T04:38:19.842Z,60.90
2023-03-04T04:40:46.925Z,61.95
2023-03-04T04:43:14.155Z,61.13
2023-03-04T04:45:41.952Z,60.95
2023-03-04T04:48:08.981Z,61.08
2023-03-04T04:50:36.109Z,60.50
2023-03-04T04:53:03.093Z,60.25
2023-03-04T04:55:30.167Z,61.33
2023-03-04T04:57:57.167Z,61.05
2023-03-04T05:00:24.162Z,59.78
2023-03-04T05:02:51.293Z,59.47
2023-03-04T05:05:18.389Z,62.42
2023-03-04T05:07:45.458Z,61.13
2023-03-04T05:10:12.513Z,60.85
2023-03-04T05:12:39.609Z,60.55
2023-03-04T05:15:06.835Z,59.65
2023-03-04T05:17:33.823Z,59.10
2023-03-04T05:20:00.874Z,60.95
2023-03-04T05:22:27.953Z,62.35
2023-03-04T05:24:55.206Z,59.38
2023-03-04T05:27:22.249Z,60.13
2023-03-04T05:29:49.261Z,61.78
2023-03-04T05:32:16.309Z,60.03
2023-03-04T05:34:43.345Z,60.95
2023-03-04T05:37:10.348Z,57.72
2023-03-04T05:39:37.399Z,60.03
2023-03-04T05:42:04.516Z,59.40
2023-03-04T05:44:31.539Z,61.55
2023-03-04T05:46:58.584Z,60.50
2023-03-04T05:49:25.598Z,61.88
2023-03-04T05:51:52.598Z,61.20
2023-03-04T05:54:19.742Z,60.85
2023-03-04T05:56:46.784Z,61.55
2023-03-04T05:59:14.015Z,59.40
2023-03-04T06:01:41.053Z,61.15
2023-03-04T06:04:08.212Z,61.53
2023-03-04T06:06:35.245Z,58.45
2023-03-04T06:09:02.301Z,59.42
2023-03-04T06:11:29.350Z,58.60
2023-03-04T06:13:56.401Z,58.25
2023-03-04T06:16:23.482Z,60.53
2023-03-04T06:18:50.542Z,57.47
2023-03-04T06:21:17.521Z,57.35
2023-03-04T06:23:45.160Z,56.60
2023-03-04T06:26:15.539Z,58.70
2023-03-04T06:28:43.234Z,57.75
2023-03-04T06:31:10.364Z,58.10
2023-03-04T06:33:37.639Z,57.40
2023-03-04T06:36:04.820Z,55.47
2023-03-04T06:38:31.832Z,56.53
2023-03-04T06:41:06.185Z,58.83
2023-03-04T06:43:33.199Z,55.95
2023-03-04T06:46:00.226Z,56.80
2023-03-04T06:48:27.272Z,56.50
2023-03-04T06:50:54.285Z,58.30
2023-03-04T06:53:21.326Z,57.38
2023-03-04T06:55:49.433Z,57.13
2023-03-04T06:58:17.402Z,56.13
2023-03-04T07:00:45.365Z,56.13
2023-03-04T07:03:13.461Z,57.80
2023-03-04T07:05:40.643Z,55.55
2023-03-04T07:08:07.747Z,56.70
2023-03-04T07:10:34.764Z,51.65
2023-03-04T07:13:02.109Z,56.35
2023-03-04T07:15:29.230Z,51.88
2023-03-04T07:17:56.299Z,54.70
2023-03-04T07:20:23.425Z,52.35
2023-03-04T07:22:50.435Z,51.85
2023-03-04T07:25:18.016Z,52.30
2023-03-04T07:27:45.032Z,53.47
2023-03-04T07:30:12.419Z,51.25
2023-03-04T07:32:39.530Z,52.03
2023-03-04T07:35:06.857Z,52.53
2023-03-04T07:37:33.877Z,53.58
2023-03-04T07:40:00.923Z,51.22
2023-03-04T07:42:27.952Z,50.22
2023-03-04T07:44:55.242Z,51.42
2023-03-04T07:47:22.268Z,53.10
2023-03-04T07:49:49.457Z,52.83
2023-03-04T07:52:16.572Z,53.30
2023-03-04T07:54:43.575Z,52.75
2023-03-04T07:57:10.638Z,50.70
2023-03-04T07:59:37.690Z,51.33
2023-03-04T08:02:04.884Z,51.40
2023-03-04T08:04:32.026Z,50.55
2023-03-04T08:06:59.082Z,50.85
2023-03-04T08:09:26.164Z,49.30
2023-03-04T08:11:53.304Z,49.45
2023-03-04T08:14:20.464Z,50.55
2023-03-04T08:16:47.487Z,50.95
2023-03-04T08:19:14.529Z,49.63
2023-03-04T08:21:41.548Z,47.45
2023-03-04T08:24:09.147Z,44.67
2023-03-04T08:26:40.817Z,46.80
2023-03-04T08:29:08.919Z,48.17
2023-03-04T08:31:36.294Z,46.58
2023-03-04T08:34:04.415Z,44.67
2023-03-04T08:36:31.546Z,43.95
2023-03-04T08:38:58.544Z,45.78
2023-03-04T08:41:27.367Z,43.33
2023-03-04T08:43:54.430Z,42.15
2023-03-04T08:46:21.528Z,42.75
2023-03-04T08:48:48.725Z,42.42
2023-03-04T08:51:16.939Z,43.63
2023-03-04T08:53:44.099Z,42.22
2023-03-04T08:56:11.580Z,43.80
2023-03-04T08:58:38.696Z,45.28
2023-03-04T09:01:07.972Z,43.33
2023-03-04T09:03:35.022Z,43.88
2023-03-04T09:06:02.833Z,43.30
2023-03-04T09:08:29.914Z,42.75
2023-03-04T09:10:57.179Z,39.55
2023-03-04T09:13:26.388Z,41.08
2023-03-04T09:15:53.856Z,41.22
2023-03-04T09:18:21.623Z,43.10
2023-03-04T09:20:48.680Z,38.88
2023-03-04T09:23:15.695Z,38.88
2023-03-04T09:25:43.344Z,39.15
2023-03-04T09:28:11.617Z,42.30
2023-03-04T09:30:38.796Z,38.72
2023-03-04T09:33:05.889Z,35.53
2023-03-04T09:35:33.131Z,38.05
2023-03-04T09:38:00.269Z,40.78
2023-03-04T09:40:29.140Z,35.67
2023-03-04T09:43:07.314Z,36.15
2023-03-04T09:45:37.892Z,35.90
2023-03-04T09:48:06.370Z,35.88
2023-03-04T09:50:34.817Z,36.97
2023-03-04T09:53:20.450Z,36.80
2023-03-04T09:55:50.259Z,37.00
2023-03-04T09:58:17.231Z,35.95
2023-03-04T10:00:45.848Z,36.22
2023-03-04T10:03:18.485Z,34.97
2023-03-04T10:06:06.885Z,35.92
2023-03-04T10:08:48.335Z,35.47
2023-03-04T10:11:25.367Z,35.72
2023-03-04T10:13:56.146Z,34.55
2023-03-04T10:16:25.221Z,33.47
2023-03-04T10:18:58.767Z,32.65
2023-03-04T10:21:39.762Z,29.52
2023-03-04T10:24:28.638Z,31.13
2023-03-04T10:26:58.718Z,30.02
2023-03-04T10:29:25.833Z,31.00
2023-03-04T10:31:56.022Z,29.85
2023-03-04T10:34:23.513Z,29.35
2023-03-04T10:36:54.824Z,30.33
2023-03-04T10:39:23.456Z,29.90
2023-03-04T10:41:58.192Z,32.28
2023-03-04T10:44:25.755Z,28.95
2023-03-04T10:46:54.648Z,29.90
2023-03-04T10:49:22.194Z,28.63
2023-03-04T10:51:51.489Z,29.00
2023-03-04T10:54:18.468Z,29.02
2023-03-04T10:56:53.982Z,28.75
2023-03-04T10:59:30.987Z,31.13
2023-03-04T11:01:58.813Z,30.27
2023-03-04T11:04:26.789Z,29.52
2023-03-04T11:06:54.546Z,30.40
2023-03-04T11:09:22.996Z,29.40
2023-03-04T11:11:51.033Z,28.83
2023-03-04T11:14:24.072Z,30.52
2023-03-04T11:16:56.250Z,28.80
2023-03-04T11:19:24.176Z,30.02
2023-03-04T11:21:52.320Z,30.38
2023-03-04T11:24:33.686Z,29.58
2023-03-04T11:27:05.822Z,30.58
2023-03-04T11:29:42.947Z,31.92
2023-03-04T11:32:12.969Z,31.35
2023-03-04T11:34:45.436Z,30.45
2023-03-04T11:37:18.574Z,30.35
2023-03-04T11:39:59.788Z,29.02
2023-03-04T11:42:32.863Z,29.17
2023-03-04T11:45:00.042Z,31.40
2023-03-04T11:47:32.986Z,31.25
2023-03-04T11:50:09.427Z,32.50
2023-03-04T11:52:39.693Z,31.30
2023-03-04T11:55:09.587Z,30.08
2023-03-04T11:57:48.805Z,32.70
2023-03-04T12:00:21.636Z,32.00
2023-03-04T12:02:57.940Z,32.20
2023-03-04T12:05:39.899Z,32.45
2023-03-04T12:08:15.164Z,33.13
2023-03-04T12:11:06.338Z,30.20
2023-03-04T12:13:36.282Z,30.33
2023-03-04T12:16:03.495Z,29.17
2023-03-04T12:18:46.797Z,31.27
2023-03-04T12:21:18.280Z,31.30
2023-03-04T12:24:10.526Z,30.83
2023-03-04T12:26:41.074Z,30.27
2023-03-04T12:29:20.307Z,27.67
2023-03-04T12:31:51.224Z,28.27
2023-03-04T12:34:34.629Z,27.55
2023-03-04T12:37:17.967Z,28.60
2023-03-04T12:40:08.285Z,21.27
2023-03-04T12:42:35.392Z,27.05
2023-03-04T12:45:18.531Z,27.33
2023-03-04T12:47:54.629Z,21.55
2023-03-04T12:50:21.587Z,22.92
2023-03-04T12:53:04.337Z,24.27
2023-03-04T12:55:41.096Z,21.92
2023-03-04T12:58:14.258Z,23.30
2023-03-04T13:00:47.431Z,22.75
2023-03-04T13:03:20.664Z,22.52
2023-03-04T13:06:06.282Z,21.80
2023-03-04T13:08:33.299Z,24.02
2023-03-04T13:11:23.439Z,23.60
2023-03-04T13:14:05.898Z,25.20
2023-03-04T13:16:35.545Z,25.13
2023-03-04T13:19:02.561Z,23.10
2023-03-04T13:21:33.805Z,24.08
2023-03-04T13:24:23.979Z,24.05
2023-03-04T13:26:51.131Z,24.83
2023-03-04T13:29:18.160Z,24.30
2023-03-04T13:32:11.623Z,23.30
2023-03-04T13:34:46.349Z,24.15
2023-03-04T13:37:33.795Z,24.48
2023-03-04T13:40:20.566Z,24.20
2023-03-04T13:42:47.910Z,23.15
2023-03-04T13:45:31.493Z,20.98
2023-03-04T13:47:58.847Z,21.70
2023-03-04T13:50:25.911Z,22.25
2023-03-04T13:52:53.510Z,20.90
2023-03-04T13:55:34.872Z,20.40
2023-03-04T13:58:03.146Z,22.05
2023-03-04T14:00:30.462Z,20.88
2023-03-04T14:02:57.564Z,21.58
2023-03-04T14:05:24.564Z,20.42
2023-03-04T14:07:51.639Z,19.73
2023-03-04T14:10:23.685Z,21.83
2023-03-04T14:12:52.500Z,20.83
2023-03-04T14:15:25.655Z,20.50
2023-03-04T14:17:57.222Z,21.40
2023-03-04T14:20:24.265Z,21.92
2023-03-04T14:22:51.318Z,20.10
2023-03-04T14:25:21.447Z,20.08
2023-03-04T14:27:48.495Z,19.83
2023-03-04T14:30:40.944Z,20.27
2023-03-04T14:33:10.868Z,18.73
2023-03-04T14:35:38.709Z,19.83
2023-03-04T14:38:16.585Z,18.08
2023-03-04T14:40:46.122Z,20.15
2023-03-04T14:43:18.756Z,18.73
2023-03-04T14:45:46.612Z,19.45
2023-03-04T14:48:19.701Z,18.35
2023-03-04T14:50:50.360Z,18.70
2023-03-04T14:53:18.902Z,19.38
2023-03-04T14:56:05.834Z,18.10
2023-03-04T14:58:34.443Z,18.38
2023-03-04T15:01:07.351Z,17.30
2023-03-04T15:03:34.984Z,17.77
2023-03-04T15:06:19.426Z,17.27
2023-03-04T15:08:47.416Z,17.95
2023-03-04T15:11:22.234Z,19.17
2023-03-04T15:13:50.612Z,17.15
2023-03-04T15:16:19.912Z,17.50
2023-03-04T15:19:01.708Z,17.48
2023-03-04T15:21:40.195Z,18.20
2023-03-04T15:24:08.463Z,16.55
2023-03-04T15:26:39.196Z,18.13
2023-03-04T15:29:16.725Z,18.70
2023-03-04T15:31:44.563Z,17.30
2023-03-04T15:34:13.386Z,19.55
2023-03-04T15:36:41.047Z,17.08
2023-03-04T15:39:11.510Z,18.55
2023-03-04T15:41:38.569Z,18.83
2023-03-04T15:44:05.750Z,18.52
2023-03-04T15:46:33.260Z,19.35
2023-03-04T15:49:00.386Z,18.95
2023-03-04T15:51:27.840Z,18.48
2023-03-04T15:53:56.664Z,19.38
2023-03-04T15:56:25.350Z,18.00
2023-03-04T15:58:56.305Z,17.67
2023-03-04T16:01:24.204Z,18.65
2023-03-04T16:03:53.820Z,18.73
2023-03-04T16:06:23.418Z,19.63
2023-03-04T16:08:51.226Z,19.17
2023-03-04T16:11:20.684Z,19.73
2023-03-04T16:13:48.202Z,18.77
2023-03-04T16:16:15.801Z,19.60
2023-03-04T16:18:43.529Z,19.90
2023-03-04T16:21:13.760Z,19.35
2023-03-04T16:23:42.139Z,18.88
2023-03-04T16:26:13.335Z,18.95
2023-03-04T16:28:40.611Z,20.20
2023-03-04T16:31:07.840Z,21.15
2023-03-04T16:33:34.925Z,19.67
2023-03-04T16:36:03.949Z,20.45
2023-03-04T16:38:34.451Z,20.35
2023-03-04T16:41:02.199Z,21.90
2023-03-04T16:43:29.620Z,21.38
2023-03-04T16:45:56.746Z,19.75
2023-03-04T16:48:23.860Z,21.48
2023-03-04T16:50:51.478Z,19.67
2023-03-04T16:53:24.591Z,20.23
2023-03-04T16:55:51.698Z,21.77
2023-03-04T16:58:18.751Z,22.30
2023-03-04T17:00:45.792Z,21.42
2023-03-04T17:03:12.920Z,20.20
2023-03-04T17:05:39.977Z,20.30
2023-03-04T17:08:07.091Z,22.55
2023-03-04T17:10:34.700Z,21.50
2023-03-04T17:13:01.733Z,21.45
2023-03-04T17:15:28.783Z,20.42
2023-03-04T17:17:55.827Z,21.60
2023-03-04T17:20:23.255Z,22.13
2023-03-04T17:22:50.361Z,22.42
2023-03-04T17:25:17.400Z,22.02
2023-03-04T17:27:44.510Z,22.10
2023-03-04T17:30:12.397Z,22.02
2023-03-04T17:32:40.038Z,22.55
2023-03-04T17:35:08.116Z,26.38
2023-03-04T17:37:36.826Z,23.35
2023-03-04T17:40:08.555Z,25.52
2023-03-04T17:42:35.773Z,39.63
2023-03-04T17:45:02.799Z,25.48
2023-03-04T17:47:29.997Z,67.35
2023-03-04T17:49:57.069Z,26.40
2023-03-04T17:52:24.138Z,26.50
2023-03-04T17:54:51.214Z,71.40
2023-03-04T17:57:18.230Z,27.73
2023-03-04T17:59:45.255Z,25.02
2023-03-04T18:02:15.036Z,25.88
2023-03-04T18:04:42.614Z,29.83
2023-03-04T18:07:09.645Z,25.48
2023-03-04T18:09:36.695Z,25.27
2023-03-04T18:12:04.977Z,27.05
2023-03-04T18:14:32.021Z,31.10
2023-03-04T18:16:59.089Z,26.17
2023-03-04T18:19:26.261Z,25.33
2023-03-04T18:21:53.342Z,27.05
2023-03-04T18:24:20.478Z,27.02
2023-03-04T18:26:48.712Z,25.70
2023-03-04T18:29:15.785Z,24.35
2023-03-04T18:31:43.202Z,25.27
2023-03-04T18:34:10.921Z,25.65
2023-03-04T18:36:37.999Z,25.02
2023-03-04T18:39:07.257Z,26.15
2023-03-04T18:41:34.482Z,25.70
2023-03-04T18:44:01.621Z,24.88
2023-03-04T18:46:31.413Z,26.95
2023-03-04T18:49:03.613Z,25.70
2023-03-04T18:51:30.932Z,23.08
2023-03-04T18:53:58.310Z,25.48
2023-03-04T18:56:45.615Z,26.45
2023-03-04T18:59:21.029Z,24.13
2023-03-04T19:01:48.491Z,24.75
2023-03-04T19:04:16.761Z,24.25
2023-03-04T19:06:43.951Z,24.70
2023-03-04T19:09:11.092Z,25.17
2023-03-04T19:11:38.208Z,25.20
2023-03-04T19:14:06.291Z,23.90
2023-03-04T19:16:33.365Z,26.60
2023-03-04T19:19:00.452Z,26.77
2023-03-04T19:21:27.490Z,25.67
2023-03-04T19:23:54.512Z,26.55
2023-03-04T19:26:21.675Z,25.33
2023-03-04T19:28:48.861Z,25.15
2023-03-04T19:31:15.846Z,25.90
2023-03-04T19:33:42.873Z,25.85
2023-03-04T19:36:10.097Z,25.63
2023-03-04T19:38:37.346Z,23.60
2023-03-04T19:41:11.523Z,24.92
2023-03-04T19:43:39.338Z,27.42
2023-03-04T19:46:07.619Z,25.42
2023-03-04T19:48:36.191Z,26.90
2023-03-04T19:51:04.682Z,25.88
2023-03-04T19:53:34.675Z,25.52
2023-03-04T19:56:01.937Z,25.58
2023-03-04T19:58:28.966Z,26.23
2023-03-04T20:00:56.223Z,27.45
2023-03-04T20:03:24.037Z,26.27
2023-03-04T20:05:51.114Z,27.73
2023-03-04T20:08:18.770Z,26.58
2023-03-04T20:10:45.856Z,25.80
2023-03-04T20:13:12.929Z,27.02
2023-03-04T20:15:42.997Z,25.70
2023-03-04T20:18:10.102Z,26.75
2023-03-04T20:20:38.712Z,26.40
2023-03-04T20:23:06.275Z,26.90
2023-03-04T20:25:33.294Z,26.20
2023-03-04T20:28:00.402Z,27.00
2023-03-04T20:30:27.477Z,28.08
2023-03-04T20:32:54.627Z,26.13
2023-03-04T20:35:21.771Z,26.52
2023-03-04T20:37:48.812Z,27.33
2023-03-04T20:40:15.984Z,27.35
2023-03-04T20:42:43.050Z,28.52
2023-03-04T20:45:10.203Z,29.55
2023-03-04T20:47:39.555Z,27.55
2023-03-04T20:50:07.024Z,28.20
2023-03-04T20:52:34.074Z,26.80
2023-03-04T20:55:01.071Z,24.90
2023-03-04T20:57:30.183Z,27.85
2023-03-04T20:59:57.248Z,25.90
2023-03-04T21:02:25.372Z,26.38
2023-03-04T21:04:53.767Z,27.40
2023-03-04T21:07:20.774Z,27.17
2023-03-04T21:09:47.822Z,27.05
2023-03-04T21:12:14.877Z,27.27
2023-03-04T21:14:41.926Z,25.90
2023-03-04T21:17:10.252Z,26.25
2023-03-04T21:19:40.061Z,25.88
2023-03-04T21:22:07.185Z,27.85
2023-03-04T21:24:35.557Z,26.40
2023-03-04T21:27:04.530Z,26.77
2023-03-04T21:29:31.628Z,27.73
2023-03-04T21:32:22.272Z,27.65
2023-03-04T21:34:52.018Z,27.98
2023-03-04T21:37:19.676Z,29.98
2023-03-04T21:39:46.926Z,31.65
2023-03-04T21:42:14.132Z,29.45
2023-03-04T21:44:50.376Z,30.40
2023-03-04T21:47:18.895Z,29.38
2023-03-04T21:49:46.124Z,28.55
2023-03-04T21:52:13.168Z,29.55
2023-03-04T21:54:40.217Z,28.40
2023-03-04T21:57:07.321Z,28.67
2023-03-04T21:59:34.359Z,31.40
2023-03-04T22:02:02.225Z,29.33
2023-03-04T22:04:29.311Z,31.27
2023-03-04T22:06:56.354Z,31.35
2023-03-04T22:09:23.430Z,28.50
2023-03-04T22:11:50.545Z,30.58
2023-03-04T22:14:17.544Z,28.25
2023-03-04T22:16:54.634Z,29.77
2023-03-04T22:19:23.896Z,32.42
2023-03-04T22:21:51.852Z,31.02
2023-03-04T22:24:19.020Z,29.33
2023-03-04T22:26:46.169Z,29.73
2023-03-04T22:29:13.225Z,30.92
2023-03-04T22:31:40.382Z,30.88
2023-03-04T22:34:09.474Z,30.92
2023-03-04T22:36:37.618Z,32.13
2023-03-04T22:39:05.589Z,31.23
2023-03-04T22:41:33.061Z,32.90
2023-03-04T22:44:00.674Z,32.58
2023-03-04T22:46:31.912Z,32.55
2023-03-04T22:49:00.032Z,31.23
2023-03-04T22:51:27.997Z,32.45
2023-03-04T22:53:55.952Z,33.70
2023-03-04T22:56:22.999Z,31.80
2023-03-04T22:58:50.143Z,30.33
2023-03-04T23:01:18.116Z,33.58
2023-03-04T23:03:46.254Z,31.75
2023-03-04T23:06:21.069Z,30.83
2023-03-04T23:08:49.738Z,31.63
2023-03-04T23:11:19.753Z,30.70
2023-03-04T23:13:46.794Z,32.92
2023-03-04T23:16:14.057Z,31.33
2023-03-04T23:18:42.471Z,30.63
2023-03-04T23:21:11.207Z,31.63
2023-03-04T23:23:38.596Z,32.05
2023-03-04T23:26:06.102Z,32.03
2023-03-04T23:28:33.183Z,30.83
2023-03-04T23:31:00.268Z,32.53
2023-03-04T23:33:27.353Z,33.55
2023-03-04T23:35:54.446Z,31.73
2023-03-04T23:38:21.510Z,31.92
2023-03-04T23:40:48.511Z,31.42
2023-03-04T23:43:15.533Z,34.25
2023-03-04T23:45:42.642Z,30.52
2023-03-04T23:48:09.712Z,31.17
2023-03-04T23:50:38.094Z,32.83
2023-03-04T23:53:05.158Z,30.75
2023-03-04T23:55:34.157Z,32.63
2023-03-04T23:58:01.196Z,31.95
